Time;durP1;ratioP1;P1;durP2;ratioP2;P2;SDS_P1;SDS_P2;PMS_P1;PMS_P2;Temp;Humidity;BMP_temperature;BMP_pressure;BME280_temperature;BME280_humidity;BME280_pressure;Samples;Min_cycle;Max_cycle;Signal;HPM_P1;HPM_P2
2023/05/07 00:01:22;;;;;;;4.93;4.45;;;;;;;;;;5016180;28;20711;-86
2023/05/07 00:03:49;;;;;;;7.10;5.43;;;;;;;;;;5016500;28;20203;-85
2023/05/07 00:06:17;;;;;;;5.38;4.95;;;;;;;;;;5016498;28;20289;-85
2023/05/07 00:08:44;;;;;;;5.47;4.97;;;;;;;;;;5016421;28;20627;-85
2023/05/07 00:11:13;;;;;;;5.80;5.30;;;;;;;;;;5016280;28;20632;-85
2023/05/07 00:13:41;;;;;;;5.10;4.70;;;;;;;;;;5016351;28;20246;-85
2023/05/07 00:16:08;;;;;;;6.03;5.53;;;;;;;;;;5016229;28;20398;-85
2023/05/07 00:18:36;;;;;;;4.72;4.38;;;;;;;;;;4997043;28;20195;-85
2023/05/07 00:21:03;;;;;;;6.32;5.78;;;;;;;;;;4996939;28;20306;-85
2023/05/07 00:23:31;;;;;;;5.75;5.22;;;;;;;;;;4997291;28;20204;-85
2023/05/07 00:25:58;;;;;;;5.35;4.95;;;;;;;;;;4996867;28;20266;-85
2023/05/07 00:28:27;;;;;;;5.32;4.93;;;;;;;;;;4996593;28;20637;-85
2023/05/07 00:30:55;;;;;;;5.53;5.13;;;;;;;;;;5015755;28;20207;-85
2023/05/07 00:33:22;;;;;;;5.43;4.20;;;;;;;;;;5016637;28;20198;-85
2023/05/07 00:35:50;;;;;;;4.97;4.47;;;;;;;;;;5018011;28;20226;-85
2023/05/07 00:38:17;;;;;;;6.10;5.40;;;;;;;;;;5017402;28;20245;-85
2023/05/07 00:40:45;;;;;;;6.85;6.25;;;;;;;;;;5017601;28;20255;-86
2023/05/07 00:43:12;;;;;;;6.18;5.57;;;;;;;;;;5017459;28;20213;-85
2023/05/07 00:45:41;;;;;;;6.28;5.70;;;;;;;;;;5017111;28;20221;-85
2023/05/07 00:48:09;;;;;;;6.38;5.78;;;;;;;;;;5016148;28;20302;-86
2023/05/07 00:50:36;;;;;;;5.72;5.10;;;;;;;;;;5016513;28;20213;-85
2023/05/07 00:53:04;;;;;;;5.60;5.05;;;;;;;;;;5015689;28;20712;-85
2023/05/07 00:55:31;;;;;;;5.80;5.30;;;;;;;;;;5016290;28;20658;-86
2023/05/07 00:57:59;;;;;;;6.35;5.82;;;;;;;;;;5017090;28;20639;-85
2023/05/07 01:00:26;;;;;;;6.18;5.57;;;;;;;;;;5018536;28;20318;-84
2023/05/07 01:02:55;;;;;;;5.80;5.30;;;;;;;;;;5036265;28;20237;-85
2023/05/07 01:05:25;;;;;;;6.43;5.93;;;;;;;;;;5029880;28;20283;-85
2023/05/07 01:07:54;;;;;;;7.75;7.05;;;;;;;;;;5038865;28;20206;-84
2023/05/07 01:10:22;;;;;;;7.63;6.50;;;;;;;;;;5038082;28;20198;-85
2023/05/07 01:12:50;;;;;;;6.40;5.88;;;;;;;;;;5036181;28;20240;-85
2023/05/07 01:15:18;;;;;;;8.02;6.40;;;;;;;;;;5037038;28;20309;-85
2023/05/07 01:17:45;;;;;;;6.25;5.63;;;;;;;;;;5024303;28;20715;-85
2023/05/07 01:20:15;;;;;;;6.93;6.32;;;;;;;;;;5019252;28;20234;-85
2023/05/07 01:22:45;;;;;;;6.45;5.95;;;;;;;;;;5016501;28;20207;-85
2023/05/07 01:25:13;;;;;;;6.82;6.22;;;;;;;;;;5017054;28;20301;-84
2023/05/07 01:27:40;;;;;;;6.32;5.75;;;;;;;;;;5016580;28;20214;-86
2023/05/07 01:30:09;;;;;;;6.25;5.70;;;;;;;;;;5016015;28;20233;-85
2023/05/07 01:32:43;;;;;;;6.88;6.22;;;;;;;;;;5016439;28;20637;-85
2023/05/07 01:35:14;;;;;;;7.47;6.78;;;;;;;;;;5016799;28;20604;-85
2023/05/07 01:37:43;;;;;;;8.75;7.90;;;;;;;;;;5016436;28;20281;-85
2023/05/07 01:40:12;;;;;;;7.63;6.90;;;;;;;;;;5016360;28;20242;-85
2023/05/07 01:42:39;;;;;;;6.57;6.00;;;;;;;;;;5017036;28;20286;-85
2023/05/07 01:45:08;;;;;;;6.82;6.22;;;;;;;;;;5016835;28;20214;-85
2023/05/07 01:47:37;;;;;;;7.15;6.45;;;;;;;;;;5017140;28;20234;-85
2023/05/07 01:50:07;;;;;;;9.27;7.70;;;;;;;;;;5017479;28;20237;-83
2023/05/07 01:52:35;;;;;;;7.18;6.47;;;;;;;;;;5017977;28;20222;-85
2023/05/07 01:55:05;;;;;;;8.32;6.78;;;;;;;;;;5018960;28;20321;-85
2023/05/07 01:57:33;;;;;;;8.23;7.43;;;;;;;;;;5017643;28;20285;-85
2023/05/07 02:00:00;;;;;;;7.18;6.38;;;;;;;;;;5015903;28;20277;-85
2023/05/07 02:02:28;;;;;;;6.28;5.72;;;;;;;;;;5016085;28;20614;-85
2023/05/07 02:04:55;;;;;;;7.88;7.07;;;;;;;;;;5015844;28;20633;-85
2023/05/07 02:07:23;;;;;;;7.82;6.47;;;;;;;;;;5016663;28;20203;-85
2023/05/07 02:09:50;;;;;;;7.93;6.95;;;;;;;;;;5016550;28;20274;-86
2023/05/07 02:12:19;;;;;;;7.65;6.90;;;;;;;;;;5017477;28;20699;-85
2023/05/07 02:14:46;;;;;;;8.25;7.35;;;;;;;;;;5015661;28;20314;-85
2023/05/07 02:17:14;;;;;;;7.70;7.00;;;;;;;;;;5016032;28;20722;-85
2023/05/07 02:19:42;;;;;;;7.38;6.68;;;;;;;;;;5015198;28;20238;-86
2023/05/07 02:22:10;;;;;;;6.80;6.10;;;;;;;;;;5015832;28;20636;-86
2023/05/07 02:24:38;;;;;;;7.45;6.32;;;;;;;;;;5015488;28;20203;-85
2023/05/07 02:27:05;;;;;;;9.40;8.00;;;;;;;;;;5017076;28;20199;-85
2023/05/07 02:29:34;;;;;;;7.55;6.95;;;;;;;;;;5016774;28;20270;-85
2023/05/07 02:32:01;;;;;;;6.75;6.15;;;;;;;;;;5015922;28;20290;-86
2023/05/07 02:34:29;;;;;;;5.90;5.35;;;;;;;;;;5015214;28;20561;-85
2023/05/07 02:36:56;;;;;;;5.63;5.13;;;;;;;;;;5015142;28;20677;-85
2023/05/07 02:39:24;;;;;;;5.32;4.82;;;;;;;;;;5014877;28;20642;-86
2023/05/07 02:41:51;;;;;;;7.60;6.82;;;;;;;;;;5016922;28;20202;-85
2023/05/07 02:44:19;;;;;;;6.00;5.22;;;;;;;;;;5019009;28;20241;-86
2023/05/07 02:46:48;;;;;;;5.43;4.93;;;;;;;;;;5018309;28;20577;-86
2023/05/07 02:49:15;;;;;;;5.28;4.80;;;;;;;;;;5018240;28;20301;-86
2023/05/07 02:51:43;;;;;;;5.20;4.80;;;;;;;;;;5018776;28;20234;-86
2023/05/07 02:54:10;;;;;;;8.20;7.40;;;;;;;;;;5018505;28;20656;-86
2023/05/07 02:56:38;;;;;;;6.53;5.93;;;;;;;;;;5018445;28;20593;-86
2023/05/07 02:59:05;;;;;;;4.93;4.53;;;;;;;;;;5017467;28;20327;-85
2023/05/07 03:01:32;;;;;;;7.53;6.75;;;;;;;;;;5018206;28;20642;-86
2023/05/07 03:04:01;;;;;;;5.32;4.82;;;;;;;;;;5018109;28;20626;-86
2023/05/07 03:06:29;;;;;;;6.50;5.80;;;;;;;;;;5018154;28;20250;-86
2023/05/07 03:08:56;;;;;;;6.78;6.18;;;;;;;;;;5019436;28;20253;-85
2023/05/07 03:11:24;;;;;;;8.88;8.02;;;;;;;;;;5021826;28;20223;-85
2023/05/07 03:13:51;;;;;;;6.75;6.10;;;;;;;;;;5018380;28;20238;-85
2023/05/07 03:16:19;;;;;;;5.25;4.85;;;;;;;;;;5015701;28;20658;-85
2023/05/07 03:18:47;;;;;;;6.53;5.93;;;;;;;;;;4998924;28;20247;-85
2023/05/07 03:21:15;;;;;;;6.85;6.05;;;;;;;;;;4998848;28;20290;-85
2023/05/07 03:23:43;;;;;;;8.15;7.32;;;;;;;;;;4999531;28;20693;-85
2023/05/07 03:26:10;;;;;;;6.43;5.82;;;;;;;;;;4998839;28;20255;-85
2023/05/07 03:28:38;;;;;;;6.63;5.93;;;;;;;;;;4998396;28;20208;-85
2023/05/07 03:31:06;;;;;;;10.32;9.30;;;;;;;;;;5000442;28;20235;-85
2023/05/07 03:33:34;;;;;;;10.15;9.10;;;;;;;;;;4999469;28;20564;-85
2023/05/07 03:36:02;;;;;;;10.40;9.25;;;;;;;;;;4999011;28;20607;-85
2023/05/07 03:38:31;;;;;;;8.23;7.40;;;;;;;;;;4998998;28;20749;-85
2023/05/07 03:40:58;;;;;;;7.82;7.13;;;;;;;;;;4998376;28;20230;-85
2023/05/07 03:43:26;;;;;;;10.15;9.02;;;;;;;;;;5002092;28;20432;-84
2023/05/07 03:45:53;;;;;;;9.32;8.52;;;;;;;;;;4998981;28;20298;-85
2023/05/07 03:48:21;;;;;;;9.68;8.57;;;;;;;;;;5018295;28;20708;-85
2023/05/07 03:50:48;;;;;;;9.60;7.88;;;;;;;;;;5018572;28;20269;-85
2023/05/07 03:53:16;;;;;;;10.65;9.63;;;;;;;;;;5017733;28;20231;-85
2023/05/07 03:55:45;;;;;;;11.18;9.57;;;;;;;;;;5017441;28;20233;-84
2023/05/07 03:58:12;;;;;;;9.65;8.65;;;;;;;;;;5017062;28;20305;-86
2023/05/07 04:00:40;;;;;;;9.70;8.70;;;;;;;;;;5017000;28;20203;-86
2023/05/07 04:03:08;;;;;;;10.73;9.40;;;;;;;;;;5016587;28;20221;-86
2023/05/07 04:05:35;;;;;;;12.85;11.02;;;;;;;;;;5016401;28;20727;-86
2023/05/07 04:08:03;;;;;;;11.18;9.27;;;;;;;;;;5015896;28;20277;-86
2023/05/07 04:10:31;;;;;;;10.80;9.75;;;;;;;;;;5016792;28;20207;-86
2023/05/07 04:13:00;;;;;;;10.65;9.65;;;;;;;;;;5017125;28;20282;-85
2023/05/07 04:15:27;;;;;;;9.98;8.98;;;;;;;;;;5016706;28;20233;-84
2023/05/07 04:17:55;;;;;;;10.60;9.48;;;;;;;;;;5017476;28;20309;-85
2023/05/07 04:20:22;;;;;;;11.80;9.85;;;;;;;;;;5016641;28;20722;-86
2023/05/07 04:22:50;;;;;;;11.40;10.18;;;;;;;;;;5016877;28;20238;-86
2023/05/07 04:25:17;;;;;;;11.25;9.63;;;;;;;;;;5016501;28;20219;-87
2023/05/07 04:27:45;;;;;;;10.07;9.00;;;;;;;;;;5017140;28;20230;-85
2023/05/07 04:30:15;;;;;;;9.50;8.52;;;;;;;;;;5016845;28;20226;-85
2023/05/07 04:32:44;;;;;;;11.65;10.45;;;;;;;;;;5016664;28;20665;-85
2023/05/07 04:35:12;;;;;;;9.98;8.98;;;;;;;;;;5017367;28;20274;-85
2023/05/07 04:37:39;;;;;;;11.07;9.40;;;;;;;;;;5017179;28;20258;-86
2023/05/07 04:40:09;;;;;;;9.48;8.55;;;;;;;;;;5016986;28;20207;-85
2023/05/07 04:42:36;;;;;;;13.13;10.95;;;;;;;;;;5016749;28;20303;-85
2023/05/07 04:45:05;;;;;;;9.98;8.98;;;;;;;;;;5016475;28;20305;-86
2023/05/07 04:47:34;;;;;;;11.82;10.57;;;;;;;;;;5017061;28;20207;-85
2023/05/07 04:50:01;;;;;;;10.38;9.25;;;;;;;;;;5017244;28;20241;-86
2023/05/07 04:52:29;;;;;;;10.23;9.25;;;;;;;;;;5016996;28;20245;-85
2023/05/07 04:54:56;;;;;;;11.27;10.07;;;;;;;;;;5016460;28;20418;-86
2023/05/07 04:57:24;;;;;;;12.30;10.13;;;;;;;;;;5015568;28;20321;-85
2023/05/07 04:59:51;;;;;;;13.07;10.80;;;;;;;;;;5015956;28;20261;-86
2023/05/07 05:02:19;;;;;;;12.32;9.60;;;;;;;;;;5016458;28;20245;-85
2023/05/07 05:04:48;;;;;;;8.93;8.02;;;;;;;;;;5017336;28;20285;-86
2023/05/07 05:07:15;;;;;;;9.20;8.27;;;;;;;;;;5017839;28;20277;-85
2023/05/07 05:09:43;;;;;;;10.32;8.15;;;;;;;;;;5016990;28;20729;-85
2023/05/07 05:12:10;;;;;;;10.57;8.55;;;;;;;;;;5016250;28;20604;-86
2023/05/07 05:14:38;;;;;;;9.10;8.25;;;;;;;;;;5016372;28;20195;-85
2023/05/07 05:17:05;;;;;;;7.88;7.13;;;;;;;;;;5017174;28;20223;-85
2023/05/07 05:19:33;;;;;;;10.63;9.52;;;;;;;;;;5017198;28;20294;-85
2023/05/07 05:22:03;;;;;;;7.60;6.88;;;;;;;;;;5016618;28;20202;-85
2023/05/07 05:24:31;;;;;;;7.70;6.90;;;;;;;;;;5016739;28;20242;-85
2023/05/07 05:26:59;;;;;;;8.13;7.28;;;;;;;;;;5017610;28;20199;-85
2023/05/07 05:29:27;;;;;;;12.82;9.23;;;;;;;;;;5016699;28;20242;-85
2023/05/07 05:31:55;;;;;;;8.57;7.80;;;;;;;;;;5017163;28;20242;-86
2023/05/07 05:34:22;;;;;;;7.63;6.93;;;;;;;;;;5017079;28;20286;-85
2023/05/07 05:36:50;;;;;;;7.88;7.07;;;;;;;;;;5016793;28;20223;-86
2023/05/07 05:39:19;;;;;;;6.20;5.68;;;;;;;;;;5016657;28;20223;-85
2023/05/07 05:41:46;;;;;;;6.53;5.93;;;;;;;;;;5014333;28;20652;-87
2023/05/07 05:44:14;;;;;;;5.68;5.20;;;;;;;;;;5013142;28;20234;-87
2023/05/07 05:46:41;;;;;;;6.20;5.60;;;;;;;;;;5013599;28;20704;-86
2023/05/07 05:49:09;;;;;;;6.57;5.88;;;;;;;;;;5013916;28;20290;-87
2023/05/07 05:51:36;;;;;;;5.90;5.30;;;;;;;;;;5013568;28;20684;-87
2023/05/07 05:54:04;;;;;;;5.95;5.40;;;;;;;;;;5013204;28;20629;-86
2023/05/07 05:56:33;;;;;;;6.72;6.10;;;;;;;;;;5012841;28;20227;-87
2023/05/07 05:59:01;;;;;;;5.32;4.82;;;;;;;;;;5012695;28;20237;-87
2023/05/07 06:01:29;;;;;;;6.47;5.53;;;;;;;;;;5012788;28;20223;-87
2023/05/07 06:03:56;;;;;;;5.68;5.13;;;;;;;;;;5012879;28;20286;-86
2023/05/07 06:06:24;;;;;;;5.13;4.63;;;;;;;;;;5012490;28;20719;-87
2023/05/07 06:08:51;;;;;;;5.65;5.15;;;;;;;;;;5012912;28;20226;-87
2023/05/07 06:11:19;;;;;;;4.88;4.38;;;;;;;;;;5012860;28;20286;-87
2023/05/07 06:13:48;;;;;;;6.03;5.47;;;;;;;;;;5013067;28;20218;-87
2023/05/07 06:16:16;;;;;;;5.95;5.35;;;;;;;;;;5014974;28;20219;-86
2023/05/07 06:18:45;;;;;;;4.95;4.40;;;;;;;;;;5016771;28;20310;-86
2023/05/07 06:21:12;;;;;;;4.70;4.30;;;;;;;;;;5017651;28;20261;-87
2023/05/07 06:23:40;;;;;;;6.07;5.57;;;;;;;;;;5016833;28;20210;-87
2023/05/07 06:26:08;;;;;;;7.50;5.88;;;;;;;;;;5016773;28;20281;-86
2023/05/07 06:28:36;;;;;;;5.40;4.90;;;;;;;;;;5016734;28;20282;-87
2023/05/07 06:31:15;;;;;;;5.75;5.20;;;;;;;;;;5016585;28;20199;-86
2023/05/07 06:33:43;;;;;;;6.57;5.25;;;;;;;;;;5016863;28;20191;-87
2023/05/07 06:36:11;;;;;;;4.95;4.50;;;;;;;;;;5016448;28;20272;-87
2023/05/07 06:38:38;;;;;;;5.78;4.95;;;;;;;;;;5016636;28;20229;-87
2023/05/07 06:41:07;;;;;;;4.30;4.00;;;;;;;;;;5016249;28;20234;-87
2023/05/07 06:43:35;;;;;;;4.75;4.35;;;;;;;;;;5016591;28;20238;-87
2023/05/07 06:46:02;;;;;;;6.50;4.53;;;;;;;;;;5016072;28;20222;-86
2023/05/07 06:48:31;;;;;;;4.90;4.50;;;;;;;;;;5016214;28;20257;-86
2023/05/07 06:50:59;;;;;;;4.63;4.22;;;;;;;;;;5015778;28;20230;-87
2023/05/07 06:53:28;;;;;;;5.20;4.70;;;;;;;;;;5015914;28;20210;-88
2023/05/07 06:55:55;;;;;;;5.50;5.00;;;;;;;;;;5016274;28;20258;-87
2023/05/07 06:58:23;;;;;;;5.15;4.65;;;;;;;;;;5016090;28;20306;-87
2023/05/07 07:00:50;;;;;;;4.93;4.30;;;;;;;;;;5015730;28;20195;-87
2023/05/07 07:03:18;;;;;;;5.38;4.90;;;;;;;;;;5015874;28;20203;-86
2023/05/07 07:05:46;;;;;;;5.20;4.45;;;;;;;;;;5019223;28;20245;-87
2023/05/07 07:08:14;;;;;;;5.38;4.88;;;;;;;;;;5035703;28;20678;-86
2023/05/07 07:10:42;;;;;;;6.40;5.38;;;;;;;;;;5035877;28;20206;-86
2023/05/07 07:13:10;;;;;;;4.82;4.43;;;;;;;;;;5035122;28;20240;-87
2023/05/07 07:15:39;;;;;;;5.65;4.90;;;;;;;;;;5035747;28;20909;-86
2023/05/07 07:18:06;;;;;;;5.20;4.70;;;;;;;;;;5018315;28;20283;-85
2023/05/07 07:20:34;;;;;;;6.35;5.53;;;;;;;;;;5016295;28;20265;-86
2023/05/07 07:23:03;;;;;;;4.78;4.38;;;;;;;;;;5015935;28;20214;-86
2023/05/07 07:25:30;;;;;;;4.90;4.50;;;;;;;;;;5015805;28;20306;-87
2023/05/07 07:27:58;;;;;;;5.85;5.25;;;;;;;;;;5015253;28;20225;-87
2023/05/07 07:30:26;;;;;;;5.70;5.00;;;;;;;;;;5015500;28;20287;-86
2023/05/07 07:32:53;;;;;;;5.15;4.75;;;;;;;;;;5016026;28;20231;-87
2023/05/07 07:35:21;;;;;;;6.13;5.53;;;;;;;;;;5016219;28;20306;-86
2023/05/07 07:37:50;;;;;;;6.00;5.20;;;;;;;;;;5015543;28;20207;-86
2023/05/07 07:40:19;;;;;;;6.20;5.60;;;;;;;;;;5016210;28;20290;-86
2023/05/07 07:42:47;;;;;;;5.35;4.85;;;;;;;;;;5015030;28;20294;-86
2023/05/07 07:45:14;;;;;;;6.40;5.25;;;;;;;;;;5016014;28;20250;-87
2023/05/07 07:47:42;;;;;;;4.82;4.43;;;;;;;;;;5016094;28;20724;-86
2023/05/07 07:50:10;;;;;;;6.60;6.03;;;;;;;;;;5016986;28;20747;-86
2023/05/07 07:52:38;;;;;;;5.53;5.00;;;;;;;;;;5017018;28;20286;-87
2023/05/07 07:55:07;;;;;;;5.70;5.18;;;;;;;;;;5017051;28;20873;-85
2023/05/07 07:57:36;;;;;;;4.30;4.00;;;;;;;;;;5018311;28;20688;-86
2023/05/07 08:00:06;;;;;;;5.72;5.13;;;;;;;;;;5015892;28;20254;-86
2023/05/07 08:02:33;;;;;;;6.10;5.50;;;;;;;;;;5015164;28;20207;-85
2023/05/07 08:05:01;;;;;;;5.20;4.65;;;;;;;;;;5015101;28;20306;-87
2023/05/07 08:07:28;;;;;;;5.88;5.38;;;;;;;;;;5016539;28;20203;-86
2023/05/07 08:09:56;;;;;;;5.28;4.78;;;;;;;;;;5015050;28;20281;-87
2023/05/07 08:12:23;;;;;;;5.13;4.63;;;;;;;;;;5014799;28;20293;-86
2023/05/07 08:14:52;;;;;;;5.80;5.20;;;;;;;;;;5016316;28;20310;-86
2023/05/07 08:17:21;;;;;;;5.15;4.65;;;;;;;;;;5015734;28;20235;-86
2023/05/07 08:19:49;;;;;;;5.90;5.22;;;;;;;;;;5016135;28;20223;-86
2023/05/07 08:22:18;;;;;;;4.93;4.47;;;;;;;;;;5015544;28;20626;-87
2023/05/07 08:24:53;;;;;;;6.30;5.30;;;;;;;;;;5016458;28;20199;-86
2023/05/07 08:27:20;;;;;;;5.32;4.93;;;;;;;;;;5016882;28;20579;-87
2023/05/07 08:29:48;;;;;;;6.07;5.57;;;;;;;;;;5015461;28;20203;-86
2023/05/07 08:32:17;;;;;;;5.82;5.32;;;;;;;;;;5016443;28;20641;-86
2023/05/07 08:34:56;;;;;;;5.13;4.63;;;;;;;;;;5017304;28;20245;-86
2023/05/07 08:37:24;;;;;;;5.53;5.00;;;;;;;;;;5017144;28;20256;-87
2023/05/07 08:39:51;;;;;;;5.75;5.18;;;;;;;;;;5016808;28;20274;-86
2023/05/07 08:42:19;;;;;;;5.57;5.05;;;;;;;;;;5017036;28;20241;-85
2023/05/07 08:44:47;;;;;;;6.72;6.10;;;;;;;;;;5018004;28;20250;-85
2023/05/07 08:47:16;;;;;;;4.93;4.35;;;;;;;;;;5018263;28;20211;-85
2023/05/07 08:49:44;;;;;;;5.70;5.20;;;;;;;;;;5019169;28;20199;-85
2023/05/07 08:52:12;;;;;;;5.03;4.53;;;;;;;;;;5020738;28;20245;-86
2023/05/07 08:54:40;;;;;;;6.00;5.47;;;;;;;;;;5018567;28;20262;-85
2023/05/07 08:57:07;;;;;;;5.07;4.53;;;;;;;;;;5017703;28;20298;-85
2023/05/07 08:59:36;;;;;;;5.40;4.90;;;;;;;;;;5017334;28;20227;-86
2023/05/07 09:02:04;;;;;;;7.75;4.38;;;;;;;;;;5016245;28;20221;-86
2023/05/07 09:04:33;;;;;;;5.32;4.82;;;;;;;;;;5017216;28;20237;-86
2023/05/07 09:07:05;;;;;;;4.35;3.95;;;;;;;;;;5017052;28;20210;-85
2023/05/07 09:09:34;;;;;;;5.10;4.60;;;;;;;;;;5017858;28;20199;-85
2023/05/07 09:12:03;;;;;;;5.55;5.05;;;;;;;;;;5017306;28;20282;-85
2023/05/07 09:14:31;;;;;;;4.68;4.28;;;;;;;;;;5017774;28;20715;-85
2023/05/07 09:16:58;;;;;;;4.82;4.43;;;;;;;;;;5017720;28;20289;-85
2023/05/07 09:19:27;;;;;;;4.30;3.90;;;;;;;;;;5015592;28;20286;-85
2023/05/07 09:22:02;;;;;;;4.20;3.90;;;;;;;;;;5016431;28;20277;-85
2023/05/07 09:24:33;;;;;;;5.00;4.53;;;;;;;;;;5016545;28;20242;-86
2023/05/07 09:27:02;;;;;;;4.57;4.18;;;;;;;;;;5017768;28;20647;-86
2023/05/07 09:29:34;;;;;;;4.63;4.22;;;;;;;;;;5016221;28;20253;-85
2023/05/07 09:32:02;;;;;;;4.53;4.13;;;;;;;;;;5016100;28;20203;-87
2023/05/07 09:34:31;;;;;;;4.30;3.90;;;;;;;;;;5015656;28;20565;-85
2023/05/07 09:37:00;;;;;;;3.60;3.30;;;;;;;;;;5017148;28;20202;-85
2023/05/07 09:39:29;;;;;;;2.35;2.15;;;;;;;;;;5014716;28;20241;-86
2023/05/07 09:41:58;;;;;;;3.67;3.38;;;;;;;;;;5016791;28;20752;-87
2023/05/07 09:44:26;;;;;;;3.08;2.80;;;;;;;;;;5017047;28;20203;-86
2023/05/07 09:46:56;;;;;;;5.28;4.55;;;;;;;;;;5015240;28;20349;-86
2023/05/07 09:49:25;;;;;;;4.40;4.00;;;;;;;;;;5016519;28;20731;-85
2023/05/07 09:51:55;;;;;;;3.40;3.00;;;;;;;;;;5015965;28;20210;-86
2023/05/07 09:54:24;;;;;;;4.10;3.80;;;;;;;;;;5014656;28;20207;-87
2023/05/07 09:56:51;;;;;;;3.63;3.33;;;;;;;;;;5016224;28;20309;-85
2023/05/07 09:59:19;;;;;;;3.83;3.53;;;;;;;;;;5009736;28;20247;-86
2023/05/07 10:01:47;;;;;;;3.20;2.88;;;;;;;;;;4996129;28;20286;-86
2023/05/07 10:04:14;;;;;;;2.95;2.75;;;;;;;;;;4995147;28;20231;-85
2023/05/07 10:06:43;;;;;;;3.03;2.83;;;;;;;;;;4996574;28;20305;-85
2023/05/07 10:09:11;;;;;;;3.85;3.25;;;;;;;;;;4996293;28;20210;-86
2023/05/07 10:11:40;;;;;;;3.20;3.00;;;;;;;;;;4995093;28;20231;-87
2023/05/07 10:14:07;;;;;;;3.97;3.67;;;;;;;;;;4994483;28;20282;-86
2023/05/07 10:16:37;;;;;;;3.03;2.83;;;;;;;;;;5000288;28;20318;-85
2023/05/07 10:19:05;;;;;;;2.67;2.47;;;;;;;;;;5015057;28;20203;-88
2023/05/07 10:21:33;;;;;;;3.33;3.03;;;;;;;;;;5015839;28;20223;-85
2023/05/07 10:24:05;;;;;;;2.70;2.50;;;;;;;;;;5015813;28;20211;-87
2023/05/07 10:26:34;;;;;;;2.10;2.00;;;;;;;;;;5016384;28;20257;-86
2023/05/07 10:29:08;;;;;;;2.22;2.13;;;;;;;;;;5012353;28;20254;-85
2023/05/07 10:31:54;;;;;;;2.40;2.22;;;;;;;;;;4995720;28;20214;-85
2023/05/07 10:34:25;;;;;;;2.30;2.10;;;;;;;;;;4993950;28;20275;-85
2023/05/07 10:36:53;;;;;;;3.53;2.75;;;;;;;;;;4995372;28;20223;-86
2023/05/07 10:39:21;;;;;;;2.50;2.30;;;;;;;;;;4995043;28;20264;-87
2023/05/07 10:41:49;;;;;;;1.90;1.80;;;;;;;;;;4996637;28;20227;-85
2023/05/07 10:44:28;;;;;;;2.50;2.30;;;;;;;;;;4996926;28;20215;-85
2023/05/07 10:47:09;;;;;;;1.95;1.85;;;;;;;;;;5003606;28;20218;-86
2023/05/07 10:49:38;;;;;;;2.33;1.90;;;;;;;;;;5015546;28;20191;-85
2023/05/07 10:52:17;;;;;;;2.40;2.20;;;;;;;;;;5015798;28;20646;-86
2023/05/07 10:54:45;;;;;;;2.42;2.20;;;;;;;;;;5013819;28;20551;-85
2023/05/07 10:57:39;;;;;;;2.50;2.30;;;;;;;;;;5012725;28;20218;-86
2023/05/07 11:00:45;;;;;;;2.20;1.98;;;;;;;;;;4998201;28;20667;-85
2023/05/07 11:03:14;;;;;;;3.08;1.85;;;;;;;;;;4997606;28;20287;-86
2023/05/07 11:05:42;;;;;;;2.22;1.98;;;;;;;;;;4998329;28;20223;-86
2023/05/07 11:08:11;;;;;;;2.28;2.17;;;;;;;;;;4998321;28;20290;-86
2023/05/07 11:10:53;;;;;;;2.13;1.92;;;;;;;;;;4998565;28;20290;-86
2023/05/07 11:13:45;;;;;;;2.58;2.38;;;;;;;;;;4997707;28;20210;-87
2023/05/07 11:16:22;;;;;;;3.00;2.30;;;;;;;;;;4998962;28;20224;-87
2023/05/07 11:18:51;;;;;;;2.53;2.33;;;;;;;;;;5017816;28;20203;-86
2023/05/07 11:21:36;;;;;;;2.10;2.00;;;;;;;;;;5017821;28;20231;-85
2023/05/07 11:24:05;;;;;;;3.28;2.97;;;;;;;;;;5016625;28;20239;-86
2023/05/07 11:26:47;;;;;;;3.38;3.08;;;;;;;;;;5016353;28;20227;-86
2023/05/07 11:29:17;;;;;;;2.35;2.15;;;;;;;;;;5012476;28;20210;-86
2023/05/07 11:31:51;;;;;;;2.70;2.50;;;;;;;;;;4997337;28;20594;-85
2023/05/07 11:34:23;;;;;;;2.20;2.10;;;;;;;;;;4997746;28;20192;-85
2023/05/07 11:36:51;;;;;;;2.05;1.95;;;;;;;;;;4998083;28;20247;-85
2023/05/07 11:39:30;;;;;;;2.42;2.22;;;;;;;;;;4997273;28;20669;-87
2023/05/07 11:41:57;;;;;;;3.38;2.65;;;;;;;;;;4996478;28;20273;-86
2023/05/07 11:44:25;;;;;;;3.13;2.88;;;;;;;;;;4997205;28;20227;-87
2023/05/07 11:46:54;;;;;;;3.10;2.83;;;;;;;;;;5004472;28;20266;-86
2023/05/07 11:49:21;;;;;;;2.85;2.55;;;;;;;;;;5016145;28;20246;-85
2023/05/07 11:51:49;;;;;;;3.53;3.22;;;;;;;;;;5015506;28;20203;-85
2023/05/07 11:54:21;;;;;;;3.70;3.40;;;;;;;;;;5016550;28;20206;-87
2023/05/07 11:56:48;;;;;;;4.15;3.10;;;;;;;;;;5015699;28;20219;-86
2023/05/07 11:59:19;;;;;;;2.55;2.45;;;;;;;;;;5011526;28;20250;-85
2023/05/07 12:01:48;;;;;;;3.20;2.90;;;;;;;;;;4996701;28;20669;-88
2023/05/07 12:04:21;;;;;;;3.33;3.13;;;;;;;;;;4995912;28;20204;-86
2023/05/07 12:06:50;;;;;;;2.55;2.40;;;;;;;;;;4997227;28;20227;-86
2023/05/07 12:09:18;;;;;;;3.42;3.15;;;;;;;;;;4996322;28;20258;-86
2023/05/07 12:11:48;;;;;;;3.78;3.47;;;;;;;;;;4995319;28;20290;-87
2023/05/07 12:14:16;;;;;;;3.88;3.40;;;;;;;;;;4996711;28;20713;-85
2023/05/07 12:16:44;;;;;;;2.75;2.55;;;;;;;;;;5001788;28;20231;-85
2023/05/07 12:19:13;;;;;;;3.35;3.05;;;;;;;;;;5014818;28;20218;-87
2023/05/07 12:21:42;;;;;;;4.15;3.72;;;;;;;;;;5015225;28;20234;-87
2023/05/07 12:24:10;;;;;;;3.20;3.00;;;;;;;;;;5014699;28;20680;-86
2023/05/07 12:26:40;;;;;;;3.38;3.13;;;;;;;;;;5015608;28;20223;-85
2023/05/07 12:29:08;;;;;;;4.85;3.67;;;;;;;;;;5015615;28;20281;-86
2023/05/07 12:31:35;;;;;;;3.40;3.10;;;;;;;;;;5014783;28;20209;-86
2023/05/07 12:34:03;;;;;;;3.40;3.17;;;;;;;;;;5014075;28;20253;-87
2023/05/07 12:36:39;;;;;;;3.95;3.50;;;;;;;;;;5015403;28;20262;-87
2023/05/07 12:39:08;;;;;;;4.35;3.97;;;;;;;;;;5014239;28;20552;-88
2023/05/07 12:41:53;;;;;;;3.50;3.30;;;;;;;;;;5014536;28;20768;-85
2023/05/07 12:44:21;;;;;;;4.25;3.85;;;;;;;;;;5013929;28;20730;-86
2023/05/07 12:46:48;;;;;;;4.43;4.13;;;;;;;;;;5014061;28;20306;-87
2023/05/07 12:49:17;;;;;;;3.92;3.42;;;;;;;;;;5016612;28;20616;-86
2023/05/07 12:51:45;;;;;;;4.00;3.63;;;;;;;;;;5014988;28;20586;-85
2023/05/07 12:54:14;;;;;;;3.88;3.58;;;;;;;;;;5014431;28;20238;-87
2023/05/07 12:56:41;;;;;;;3.80;3.50;;;;;;;;;;5014722;28;20274;-85
2023/05/07 12:59:09;;;;;;;4.38;3.97;;;;;;;;;;5014479;28;20261;-86
2023/05/07 13:01:36;;;;;;;3.97;3.67;;;;;;;;;;5014291;28;20205;-88
2023/05/07 13:04:05;;;;;;;4.50;4.10;;;;;;;;;;5014182;28;20245;-86
2023/05/07 13:06:33;;;;;;;4.65;4.25;;;;;;;;;;5013614;28;20247;-88
2023/05/07 13:09:00;;;;;;;4.72;4.32;;;;;;;;;;5013595;28;20245;-87
2023/05/07 13:11:29;;;;;;;7.03;4.57;;;;;;;;;;5013388;28;20710;-87
2023/05/07 13:13:57;;;;;;;3.85;3.55;;;;;;;;;;5013645;28;20245;-85
2023/05/07 13:16:24;;;;;;;4.70;4.30;;;;;;;;;;5012979;28;20325;-86
2023/05/07 13:18:52;;;;;;;3.63;3.42;;;;;;;;;;5013473;28;20213;-86
2023/05/07 13:21:19;;;;;;;4.45;4.03;;;;;;;;;;5013629;28;20289;-86
2023/05/07 13:23:47;;;;;;;3.45;3.15;;;;;;;;;;5015319;28;20222;-85
2023/05/07 13:26:14;;;;;;;4.35;4.03;;;;;;;;;;5012142;28;20321;-87
2023/05/07 13:28:43;;;;;;;4.57;4.18;;;;;;;;;;5013121;28;20278;-87
2023/05/07 13:31:10;;;;;;;4.55;4.20;;;;;;;;;;5012843;28;20290;-87
2023/05/07 13:33:38;;;;;;;5.45;4.97;;;;;;;;;;5012751;28;20209;-88
2023/05/07 13:36:06;;;;;;;5.18;4.72;;;;;;;;;;5012632;28;20262;-86
2023/05/07 13:38:34;;;;;;;4.60;4.10;;;;;;;;;;5013603;28;20338;-86
2023/05/07 13:41:01;;;;;;;5.50;4.75;;;;;;;;;;5013951;28;20294;-87
2023/05/07 13:43:29;;;;;;;4.43;4.03;;;;;;;;;;5012884;28;20245;-86
2023/05/07 13:45:58;;;;;;;5.50;5.00;;;;;;;;;;5012344;28;20313;-87
2023/05/07 13:48:25;;;;;;;4.35;4.05;;;;;;;;;;5012626;28;20233;-87
2023/05/07 13:50:53;;;;;;;4.50;4.15;;;;;;;;;;5012729;28;20203;-85
2023/05/07 13:53:20;;;;;;;5.38;4.90;;;;;;;;;;5013375;28;20205;-86
2023/05/07 13:55:48;;;;;;;5.57;4.97;;;;;;;;;;5012396;28;20317;-88
2023/05/07 13:58:15;;;;;;;4.50;3.88;;;;;;;;;;5013290;28;20302;-86
2023/05/07 14:00:43;;;;;;;4.18;3.78;;;;;;;;;;4996007;28;20294;-87
2023/05/07 14:03:12;;;;;;;4.82;4.43;;;;;;;;;;4993829;28;20269;-86
2023/05/07 14:05:40;;;;;;;5.05;4.55;;;;;;;;;;4992742;28;20262;-88
2023/05/07 14:08:07;;;;;;;4.80;4.50;;;;;;;;;;4993336;28;20290;-85
2023/05/07 14:10:35;;;;;;;5.10;4.70;;;;;;;;;;4994326;28;20242;-86
2023/05/07 14:13:02;;;;;;;4.93;4.53;;;;;;;;;;4993592;28;20685;-88
2023/05/07 14:15:32;;;;;;;4.85;4.45;;;;;;;;;;4993047;28;20709;-87
2023/05/07 14:18:00;;;;;;;4.43;4.03;;;;;;;;;;5009039;28;20211;-87
2023/05/07 14:20:30;;;;;;;5.82;5.13;;;;;;;;;;5013103;28;20637;-86
2023/05/07 14:22:58;;;;;;;6.10;5.47;;;;;;;;;;5012434;28;20226;-88
2023/05/07 14:25:25;;;;;;;5.70;5.20;;;;;;;;;;5012430;28;20673;-86
2023/05/07 14:27:53;;;;;;;4.57;4.22;;;;;;;;;;5012527;28;20290;-88
2023/05/07 14:30:22;;;;;;;4.20;3.88;;;;;;;;;;5012628;28;20242;-85
2023/05/07 14:32:49;;;;;;;5.53;5.03;;;;;;;;;;5012285;28;20443;-86
2023/05/07 14:35:17;;;;;;;5.57;4.28;;;;;;;;;;5013442;28;20227;-88
2023/05/07 14:37:46;;;;;;;5.28;4.78;;;;;;;;;;5014855;28;20267;-88
2023/05/07 14:40:14;;;;;;;5.60;5.10;;;;;;;;;;5016052;28;20621;-88
2023/05/07 14:42:42;;;;;;;4.43;4.13;;;;;;;;;;5016252;28;20668;-87
2023/05/07 14:45:11;;;;;;;5.03;4.55;;;;;;;;;;5016591;28;20656;-87
2023/05/07 14:47:39;;;;;;;5.38;4.88;;;;;;;;;;5015664;28;20293;-88
2023/05/07 14:50:07;;;;;;;4.97;4.47;;;;;;;;;;5016043;28;20245;-88